Time;durP1;ratioP1;P1;durP2;ratioP2;P2;SDS_P1;SDS_P2;PMS_P1;PMS_P2;Temp;Humidity;BMP_temperature;BMP_pressure;BME280_temperature;BME280_humidity;BME280_pressure;Samples;Min_cycle;Max_cycle;Signal;HPM_P1;HPM_P2
2022/08/30 00:01:05;;;;;;;416.30;372.02;;;;;;;26.34;56.05;99500.88;345937;28;2183;-76
2022/08/30 00:01:26;;;;;;;413.48;369.35;;;;;;;26.28;56.05;99501.50;345047;28;1667;-77
2022/08/30 00:01:37;;;;;;;415.50;371.15;;;;;;;26.27;56.35;99497.13;346040;28;1704;-77
2022/08/30 00:01:47;;;;;;;419.67;375.23;;;;;;;26.26;56.06;99503.50;346367;28;1025;-76
2022/08/30 00:01:58;;;;;;;425.10;380.42;;;;;;;26.26;56.38;99504.34;346138;28;1397;-76
2022/08/30 00:02:09;;;;;;;425.85;381.27;;;;;;;26.27;56.18;99494.44;343833;28;960;-76
2022/08/30 00:02:19;;;;;;;423.80;379.45;;;;;;;26.26;56.56;99498.97;342780;28;2891;-76
2022/08/30 00:02:30;;;;;;;420.63;376.30;;;;;;;26.28;55.88;99501.50;340907;28;4694;-76
2022/08/30 00:02:40;;;;;;;420.65;376.33;;;;;;;26.28;55.98;99496.97;340283;29;1682;-76
2022/08/30 00:02:51;;;;;;;426.87;382.07;;;;;;;26.28;56.23;99494.28;339703;29;1717;-76
2022/08/30 00:03:01;;;;;;;429.77;384.85;;;;;;;26.28;56.31;99501.50;340028;29;3572;-76
2022/08/30 00:03:13;;;;;;;431.03;386.00;;;;;;;26.28;56.11;99496.97;338262;29;999;-77
2022/08/30 00:03:23;;;;;;;432.58;387.60;;;;;;;26.27;56.17;99497.13;340515;28;1199;-76
2022/08/30 00:03:39;;;;;;;434.50;389.50;;;;;;;26.28;56.72;99496.13;343356;28;1219;-76
2022/08/30 00:03:50;;;;;;;425.33;380.50;;;;;;;26.27;56.12;99494.44;343456;28;880;-76
2022/08/30 00:04:20;;;;;;;423.23;378.83;;;;;;;26.28;56.12;99498.81;341969;28;1179;-76
2022/08/30 00:04:31;;;;;;;428.00;383.47;;;;;;;26.28;56.49;99496.97;338030;29;1381;-76
2022/08/30 00:04:41;;;;;;;420.48;376.15;;;;;;;26.30;56.10;99494.13;341224;28;1702;-76
2022/08/30 00:04:53;;;;;;;426.87;382.27;;;;;;;26.30;56.30;99494.13;344418;28;1684;-76
2022/08/30 00:05:06;;;;;;;423.45;379.08;;;;;;;26.29;56.25;99492.44;340713;28;1633;-76
2022/08/30 00:05:16;;;;;;;430.00;385.35;;;;;;;26.28;56.23;99488.91;338992;29;1708;-76
2022/08/30 00:05:27;;;;;;;427.27;382.57;;;;;;;26.30;56.15;99494.13;337987;29;1202;-76
2022/08/30 00:05:38;;;;;;;422.88;378.20;;;;;;;26.28;56.44;99494.28;338674;29;1522;-76
2022/08/30 00:05:49;;;;;;;418.48;373.95;;;;;;;26.31;56.51;99496.66;338296;29;1412;-76
2022/08/30 00:05:59;;;;;;;413.75;369.42;;;;;;;26.30;56.48;99502.16;339385;29;905;-76
2022/08/30 00:06:10;;;;;;;413.33;368.90;;;;;;;26.32;56.17;99503.72;338629;29;1380;-76
2022/08/30 00:06:21;;;;;;;415.38;370.90;;;;;;;26.33;56.34;99496.50;336622;29;1246;-76
2022/08/30 00:06:31;;;;;;;419.60;374.85;;;;;;;26.33;56.33;99496.50;338043;29;1560;-76
2022/08/30 00:06:42;;;;;;;427.60;382.93;;;;;;;26.33;56.52;99499.19;333987;29;1754;-76
2022/08/30 00:06:52;;;;;;;424.48;379.88;;;;;;;26.33;56.17;99500.03;331471;29;1103;-76
2022/08/30 00:07:03;;;;;;;421.57;377.23;;;;;;;26.32;56.27;99492.13;331777;29;981;-76
2022/08/30 00:07:13;;;;;;;418.15;373.98;;;;;;;26.33;56.42;99499.19;334955;29;1346;-76
2022/08/30 00:07:24;;;;;;;421.10;376.80;;;;;;;26.33;56.17;99496.50;333175;29;2112;-76
2022/08/30 00:07:34;;;;;;;421.90;377.35;;;;;;;26.33;56.28;99494.66;331093;29;1772;-76
2022/08/30 00:07:45;;;;;;;420.77;376.10;;;;;;;26.33;56.18;99488.44;330648;29;811;-76
2022/08/30 00:07:56;;;;;;;420.30;375.57;;;;;;;26.33;56.18;99497.34;331111;29;1217;-76
2022/08/30 00:08:06;;;;;;;422.45;377.75;;;;;;;26.34;56.14;99495.50;330290;29;1027;-76
2022/08/30 00:08:17;;;;;;;423.88;379.05;;;;;;;26.33;56.42;99489.28;330852;29;2350;-76
2022/08/30 00:08:27;;;;;;;420.27;375.47;;;;;;;26.32;56.22;99492.97;331193;29;1241;-75
2022/08/30 00:08:39;;;;;;;423.83;379.08;;;;;;;26.33;56.24;99499.19;328093;29;1522;-76
2022/08/30 00:08:50;;;;;;;429.58;384.85;;;;;;;26.32;56.38;99497.50;330015;29;1849;-76
2022/08/30 00:09:01;;;;;;;429.23;384.17;;;;;;;26.32;56.33;99494.81;326671;30;1509;-76
2022/08/30 00:09:11;;;;;;;426.05;381.02;;;;;;;26.32;56.32;99494.81;329851;29;1665;-76
2022/08/30 00:09:23;;;;;;;425.77;380.77;;;;;;;26.30;56.17;99494.94;330455;29;2120;-76
2022/08/30 00:09:34;;;;;;;426.15;381.23;;;;;;;26.31;56.33;99493.13;329320;30;1021;-76
2022/08/30 00:09:44;;;;;;;425.63;380.63;;;;;;;26.32;56.57;99489.44;329199;29;2202;-77
2022/08/30 00:09:54;;;;;;;422.80;378.00;;;;;;;26.32;56.52;99492.97;330825;29;1581;-76
2022/08/30 00:10:05;;;;;;;427.75;382.83;;;;;;;26.32;56.27;99492.97;330624;29;2064;-77
2022/08/30 00:10:16;;;;;;;423.85;379.30;;;;;;;26.30;56.39;99488.75;330021;29;1384;-76
2022/08/30 00:10:27;;;;;;;426.03;381.50;;;;;;;26.29;56.56;99497.81;328845;30;2259;-76
2022/08/30 00:10:39;;;;;;;425.70;381.23;;;;;;;26.27;56.45;99495.28;326565;29;1999;-76
2022/08/30 00:10:50;;;;;;;425.63;380.98;;;;;;;26.28;56.51;99498.81;323996;30;1411;-76
2022/08/30 00:11:00;;;;;;;421.67;377.00;;;;;;;26.26;56.72;99496.28;324417;30;884;-76
2022/08/30 00:11:12;;;;;;;422.33;377.60;;;;;;;26.25;56.52;99494.59;325606;30;2358;-76
2022/08/30 00:11:24;;;;;;;424.77;379.85;;;;;;;26.24;56.34;99495.63;322970;30;2185;-76
2022/08/30 00:11:35;;;;;;;414.42;369.90;;;;;;;26.25;56.56;99501.81;316318;30;3862;-75
2022/08/30 00:11:46;;;;;;;415.77;371.17;;;;;;;26.26;56.86;99498.13;321201;30;3216;-75
2022/08/30 00:11:57;;;;;;;421.33;376.40;;;;;;;26.24;56.46;99494.78;321372;30;2716;-75
2022/08/30 00:12:07;;;;;;;426.20;381.23;;;;;;;26.25;56.77;99496.44;321798;30;1919;-75
2022/08/30 00:12:19;;;;;;;429.33;384.40;;;;;;;26.27;56.51;99497.13;321640;30;3255;-75
2022/08/30 00:12:31;;;;;;;425.52;380.83;;;;;;;26.27;56.52;99499.81;317386;31;933;-76
2022/08/30 00:12:42;;;;;;;427.58;382.55;;;;;;;26.25;56.48;99493.78;318178;30;2304;-76
2022/08/30 00:12:52;;;;;;;430.85;385.55;;;;;;;26.25;56.53;99496.44;318461;30;2671;-76
2022/08/30 00:13:04;;;;;;;426.27;381.33;;;;;;;26.26;56.63;99495.44;314150;31;1520;-76
2022/08/30 00:13:14;;;;;;;421.15;376.65;;;;;;;26.25;56.60;99497.28;314311;31;3395;-77
2022/08/30 00:13:25;;;;;;;425.00;380.33;;;;;;;26.25;56.70;99496.44;311704;31;3096;-76
2022/08/30 00:13:39;;;;;;;429.77;384.92;;;;;;;26.24;56.99;99498.28;307660;31;3077;-76
2022/08/30 00:13:51;;;;;;;420.25;375.58;;;;;;;26.24;56.85;99500.13;302794;32;3483;-76
2022/08/30 00:14:02;;;;;;;416.88;372.42;;;;;;;26.25;56.54;99499.13;306335;32;1027;-76
2022/08/30 00:14:12;;;;;;;421.75;377.20;;;;;;;26.26;56.90;99498.13;307095;32;3489;-76
2022/08/30 00:14:24;;;;;;;423.30;378.53;;;;;;;26.26;56.65;99498.13;307703;31;2562;-76
2022/08/30 00:14:35;;;;;;;424.38;379.77;;;;;;;26.26;56.53;99498.13;310337;31;2460;-76
2022/08/30 00:14:46;;;;;;;421.00;376.50;;;;;;;26.26;56.70;99500.81;309643;31;2233;-76
2022/08/30 00:14:57;;;;;;;421.73;377.33;;;;;;;26.25;56.47;99497.28;306958;31;3152;-76
2022/08/30 00:15:08;;;;;;;427.55;383.00;;;;;;;26.25;56.66;99494.59;306806;31;3441;-77
2022/08/30 00:15:18;;;;;;;433.85;389.33;;;;;;;26.24;56.57;99497.47;307279;32;884;-76
2022/08/30 00:15:29;;;;;;;434.57;389.87;;;;;;;26.24;56.65;99498.28;305457;32;4289;-77
2022/08/30 00:15:40;;;;;;;429.40;384.65;;;;;;;26.24;56.58;99500.13;301710;32;4239;-77
2022/08/30 00:15:51;;;;;;;434.45;389.38;;;;;;;26.24;57.10;99500.13;299674;32;4332;-77
2022/08/30 00:16:02;;;;;;;433.10;388.00;;;;;;;26.24;56.42;99500.13;304207;32;999;-76
2022/08/30 00:16:12;;;;;;;427.52;382.90;;;;;;;26.22;56.63;99496.78;302018;32;4500;-76
2022/08/30 00:16:23;;;;;;;427.00;382.13;;;;;;;26.21;56.56;99495.94;302357;32;4757;-76
2022/08/30 00:16:33;;;;;;;418.80;374.42;;;;;;;26.23;56.92;99503.81;302177;32;1510;-76
2022/08/30 00:16:44;;;;;;;418.97;374.37;;;;;;;26.23;56.73;99493.94;298797;32;3510;-76
2022/08/30 00:16:54;;;;;;;422.50;377.80;;;;;;;26.23;56.81;99503.81;295747;32;3441;-76
2022/08/30 00:17:05;;;;;;;430.43;385.27;;;;;;;26.24;56.73;99500.97;296016;32;4496;-76
2022/08/30 00:17:15;;;;;;;430.92;385.83;;;;;;;26.24;57.09;99505.50;297920;33;1242;-76
2022/08/30 00:17:25;;;;;;;427.13;382.30;;;;;;;26.25;56.62;99504.50;290466;33;5428;-76
2022/08/30 00:17:36;;;;;;;425.95;381.33;;;;;;;26.24;56.71;99497.47;289218;33;6522;-76
2022/08/30 00:17:46;;;;;;;427.87;383.33;;;;;;;26.24;56.58;99500.13;293073;33;883;-76
2022/08/30 00:17:57;;;;;;;429.00;384.55;;;;;;;26.24;56.82;99506.34;292995;33;5771;-76
2022/08/30 00:18:07;;;;;;;424.93;380.63;;;;;;;26.24;56.93;99500.13;292329;33;5838;-76
2022/08/30 00:18:18;;;;;;;423.27;378.77;;;;;;;26.24;56.99;99505.50;291009;34;1527;-76
2022/08/30 00:18:28;;;;;;;421.00;376.33;;;;;;;26.23;56.95;99503.81;286419;34;5852;-77
2022/08/30 00:18:39;;;;;;;423.33;378.37;;;;;;;26.23;56.66;99498.47;286442;34;6405;-76
2022/08/30 00:18:49;;;;;;;421.50;376.77;;;;;;;26.22;56.87;99505.66;287219;34;2495;-76
2022/08/30 00:19:01;;;;;;;424.92;380.23;;;;;;;26.22;56.72;99499.47;281656;35;1268;-76
2022/08/30 00:19:11;;;;;;;426.67;382.05;;;;;;;26.21;56.70;99497.78;281921;34;5268;-76
2022/08/30 00:19:21;;;;;;;431.60;386.90;;;;;;;26.21;56.56;99501.31;279326;35;7313;-76
2022/08/30 00:19:32;;;;;;;427.95;383.27;;;;;;;26.19;56.75;99504.16;277309;35;1264;-77
2022/08/30 00:19:42;;;;;;;431.03;386.10;;;;;;;26.20;56.96;99499.63;280177;34;8368;-76
2022/08/30 00:19:54;;;;;;;432.45;387.38;;;;;;;26.21;56.91;99497.78;279605;35;8305;-75
2022/08/30 00:20:06;;;;;;;435.02;390.10;;;;;;;26.19;57.02;99497.94;279115;35;988;-75
2022/08/30 00:20:23;;;;;;;425.48;381.05;;;;;;;26.18;56.49;99497.09;278160;35;1968;-75
2022/08/30 00:20:33;;;;;;;423.88;379.40;;;;;;;26.17;56.81;99500.81;272120;36;1418;-75
2022/08/30 00:20:45;;;;;;;427.15;382.70;;;;;;;26.16;56.83;99498.28;272868;35;7838;-75
2022/08/30 00:22:27;;;;;;;399.95;349.62;;;;;;;26.15;56.63;99491.22;2492456;27;20568;-76
2022/08/30 00:22:38;;;;;;;414.20;370.70;;;;;;;26.15;56.62;99491.22;354446;27;1624;-76
2022/08/30 00:22:48;;;;;;;414.48;370.95;;;;;;;26.16;56.61;99501.81;352950;28;949;-76
2022/08/30 00:22:59;;;;;;;423.33;379.27;;;;;;;26.14;56.84;99501.13;350348;28;845;-76
2022/08/30 00:23:09;;;;;;;425.80;381.65;;;;;;;26.15;56.49;99486.72;350189;28;1306;-76
2022/08/30 00:23:20;;;;;;;426.40;382.23;;;;;;;26.17;56.58;99494.59;350530;28;2022;-76
2022/08/30 00:23:31;;;;;;;426.63;382.38;;;;;;;26.17;57.06;99494.59;348589;28;1772;-76
2022/08/30 00:23:41;;;;;;;426.77;382.35;;;;;;;26.15;56.53;99493.91;348794;28;1619;-76
2022/08/30 00:23:52;;;;;;;427.80;383.27;;;;;;;26.14;56.94;99495.75;347530;28;891;-76
2022/08/30 00:24:03;;;;;;;426.00;381.45;;;;;;;26.14;56.77;99493.06;346059;28;1372;-76
2022/08/30 00:24:14;;;;;;;425.32;380.86;;;;;;;26.14;56.91;99490.41;347303;28;1329;-76
2022/08/30 00:24:24;;;;;;;427.77;383.23;;;;;;;26.15;56.46;99497.44;348601;28;920;-76
2022/08/30 00:24:34;;;;;;;427.87;383.37;;;;;;;26.15;56.86;99494.75;348807;28;1426;-76
2022/08/30 00:24:45;;;;;;;432.63;388.13;;;;;;;26.15;56.96;99496.59;351041;28;1903;-76
2022/08/30 00:24:55;;;;;;;421.83;377.83;;;;;;;26.16;56.56;99498.28;350190;28;1128;-76
2022/08/30 00:25:07;;;;;;;420.08;376.05;;;;;;;26.15;56.94;99492.06;347515;28;1477;-76
2022/08/30 00:25:18;;;;;;;419.00;374.77;;;;;;;26.13;56.80;99493.25;350234;28;1410;-76
2022/08/30 00:25:28;;;;;;;423.90;379.27;;;;;;;26.13;57.04;99491.41;350306;28;1509;-76
2022/08/30 00:25:39;;;;;;;422.27;377.70;;;;;;;26.12;56.74;99503.13;350353;28;830;-76
2022/08/30 00:25:49;;;;;;;423.85;379.40;;;;;;;26.13;56.92;99499.44;347417;28;1347;-76
2022/08/30 00:26:01;;;;;;;424.80;380.53;;;;;;;26.11;57.13;99496.09;349170;28;1288;-76
2022/08/30 00:26:11;;;;;;;423.15;378.95;;;;;;;26.11;56.70;99496.09;350266;28;1617;-76
2022/08/30 00:26:22;;;;;;;425.45;381.23;;;;;;;26.13;57.06;99499.44;348713;28;1425;-76
2022/08/30 00:26:32;;;;;;;430.33;385.90;;;;;;;26.13;56.66;99496.75;346874;28;2309;-75
2022/08/30 00:26:42;;;;;;;427.20;382.73;;;;;;;26.13;56.70;99499.44;346140;28;1224;-75
2022/08/30 00:26:53;;;;;;;425.63;381.00;;;;;;;26.14;56.95;99501.13;345650;28;976;-75
2022/08/30 00:27:03;;;;;;;423.53;379.03;;;;;;;26.13;56.90;99491.41;344634;28;1852;-76
2022/08/30 00:27:14;;;;;;;427.63;383.15;;;;;;;26.13;56.59;99493.25;342120;28;1231;-75
2022/08/30 00:27:26;;;;;;;422.95;378.80;;;;;;;26.12;56.53;99495.09;344705;28;1498;-75
2022/08/30 00:27:36;;;;;;;428.50;384.02;;;;;;;26.13;57.02;99495.94;344107;28;1622;-76
2022/08/30 00:27:47;;;;;;;430.63;386.17;;;;;;;26.13;56.80;99495.94;342192;28;872;-76
2022/08/30 00:27:58;;;;;;;436.02;391.50;;;;;;;26.12;56.90;99491.56;346021;28;1331;-76
2022/08/30 00:28:08;;;;;;;429.97;385.70;;;;;;;26.13;56.78;99498.59;347046;28;1078;-76
2022/08/30 00:28:19;;;;;;;429.75;385.27;;;;;;;26.14;57.26;99494.91;344952;28;1229;-76
2022/08/30 00:28:30;;;;;;;430.10;385.53;;;;;;;26.14;56.77;99495.75;343737;28;786;-76
2022/08/30 00:28:41;;;;;;;426.75;382.48;;;;;;;26.14;56.63;99495.75;345703;28;2290;-76
2022/08/30 00:28:51;;;;;;;422.33;378.23;;;;;;;26.13;56.83;99496.75;347993;28;1882;-76
2022/08/30 00:29:01;;;;;;;421.00;376.90;;;;;;;26.14;56.97;99498.44;345858;28;1506;-76
2022/08/30 00:29:12;;;;;;;428.90;384.37;;;;;;;26.14;56.77;99495.75;344970;28;997;-76
2022/08/30 00:29:23;;;;;;;427.67;383.27;;;;;;;26.14;56.95;99498.44;344339;28;1383;-76
2022/08/30 00:29:33;;;;;;;428.10;383.80;;;;;;;26.14;56.87;99493.06;343854;28;847;-77
2022/08/30 00:29:44;;;;;;;431.50;387.02;;;;;;;26.15;56.65;99492.06;344591;28;1755;-77
2022/08/30 00:29:55;;;;;;;427.48;383.20;;;;;;;26.13;57.05;99491.41;344312;28;2905;-77
2022/08/30 00:30:06;;;;;;;423.48;379.33;;;;;;;26.13;57.02;99490.56;342234;28;4602;-76
2022/08/30 00:30:17;;;;;;;421.75;377.63;;;;;;;26.13;57.01;99494.09;344113;28;1792;-76
2022/08/30 00:30:27;;;;;;;428.77;384.15;;;;;;;26.13;56.86;99494.09;340513;28;1908;-76
2022/08/30 00:30:38;;;;;;;430.33;385.67;;;;;;;26.14;57.15;99498.44;340775;28;3277;-77
2022/08/30 00:30:49;;;;;;;429.63;385.25;;;;;;;26.14;56.62;99490.41;335672;29;1324;-77
2022/08/30 00:31:00;;;;;;;423.95;379.80;;;;;;;26.14;57.11;99493.06;339844;29;845;-77
2022/08/30 00:31:11;;;;;;;425.67;381.40;;;;;;;26.13;56.73;99491.41;336830;29;1515;-76
2022/08/30 00:31:21;;;;;;;425.63;381.25;;;;;;;26.13;57.07;99494.09;337350;29;1995;-76
2022/08/30 00:31:32;;;;;;;430.13;385.63;;;;;;;26.13;57.19;99488.72;334366;29;1250;-76
2022/08/30 00:31:42;;;;;;;430.98;386.45;;;;;;;26.13;56.85;99495.94;335345;29;1538;-76
2022/08/30 00:31:53;;;;;;;433.00;388.23;;;;;;;26.12;56.70;99492.41;333391;29;1212;-76
2022/08/30 00:32:04;;;;;;;429.77;384.98;;;;;;;26.12;57.13;99495.09;334740;29;1211;-76
2022/08/30 00:32:15;;;;;;;426.98;382.27;;;;;;;26.12;56.81;99492.41;333619;29;1884;-76
2022/08/30 00:32:25;;;;;;;430.75;386.23;;;;;;;26.11;56.83;99498.78;333895;29;1428;-76
2022/08/30 00:32:36;;;;;;;432.63;388.17;;;;;;;26.11;57.04;99492.56;331403;29;2011;-76
2022/08/30 00:32:46;;;;;;;426.70;382.60;;;;;;;26.09;56.99;99495.41;330288;29;2502;-76
2022/08/30 00:32:58;;;;;;;420.03;376.13;;;;;;;26.10;56.71;99493.56;330560;29;1295;-76
2022/08/30 00:33:08;;;;;;;418.60;374.67;;;;;;;26.11;56.74;99495.25;326374;29;2178;-77
2022/08/30 00:33:18;;;;;;;427.30;383.10;;;;;;;26.08;57.08;99491.06;325153;30;2097;-77
2022/08/30 00:33:29;;;;;;;434.23;389.70;;;;;;;26.10;56.96;99493.56;325665;30;1203;-76
2022/08/30 00:33:40;;;;;;;447.93;403.13;;;;;;;26.09;56.89;99490.03;324810;30;1713;-76
2022/08/30 00:33:50;;;;;;;456.63;411.55;;;;;;;26.09;56.97;99492.72;322894;30;1987;-76
2022/08/30 00:34:01;;;;;;;467.03;421.73;;;;;;;26.11;56.96;99495.25;324553;30;986;-76
2022/08/30 00:34:11;;;;;;;467.27;422.05;;;;;;;26.10;56.69;99494.41;320852;30;1495;-76
2022/08/30 00:34:21;;;;;;;472.00;426.73;;;;;;;26.12;56.93;99497.78;322259;30;1884;-76
2022/08/30 00:34:32;;;;;;;469.85;424.60;;;;;;;26.13;56.69;99499.44;319433;30;1934;-76
2022/08/30 00:34:43;;;;;;;475.17;429.55;;;;;;;26.16;56.82;99492.91;319708;30;1694;-76
2022/08/30 00:34:53;;;;;;;470.63;425.07;;;;;;;26.17;56.60;99500.81;319972;30;2295;-76
2022/08/30 00:35:05;;;;;;;474.23;428.63;;;;;;;26.18;56.30;99502.47;320439;30;2534;-76
2022/08/30 00:35:17;;;;;;;467.05;421.73;;;;;;;26.19;56.53;99498.78;318616;31;956;-76
2022/08/30 00:35:27;;;;;;;465.80;420.67;;;;;;;26.19;56.33;99497.94;315110;31;1008;-76
2022/08/30 00:35:38;;;;;;;461.23;416.33;;;;;;;26.19;56.87;99498.78;320714;30;2696;-76
2022/08/30 00:35:49;;;;;;;468.00;422.80;;;;;;;26.18;56.63;99497.09;319057;30;2292;-76
2022/08/30 00:35:59;;;;;;;467.57;422.27;;;;;;;26.18;56.52;99497.09;317336;31;1563;-76
2022/08/30 00:36:10;;;;;;;468.65;423.30;;;;;;;26.17;56.35;99494.59;317438;30;1720;-76
2022/08/30 00:36:20;;;;;;;470.43;425.17;;;;;;;26.16;56.69;99492.91;316393;31;2135;-76
2022/08/30 00:36:30;;;;;;;470.03;424.67;;;;;;;26.14;56.55;99495.75;315170;31;851;-76
2022/08/30 00:36:45;;;;;;;462.42;417.35;;;;;;;26.13;56.75;99501.28;315954;31;2765;-76
2022/08/30 00:36:56;;;;;;;459.17;414.13;;;;;;;26.12;56.68;99495.09;313395;31;3346;-76
2022/08/30 00:37:06;;;;;;;469.13;423.70;;;;;;;26.12;56.72;99496.94;316123;30;2902;-76
2022/08/30 00:37:17;;;;;;;476.38;430.65;;;;;;;26.12;56.91;99502.28;317378;30;3185;-76
2022/08/30 00:37:28;;;;;;;470.27;424.85;;;;;;;26.11;56.77;99496.09;313882;31;1329;-76
2022/08/30 00:37:38;;;;;;;466.07;420.93;;;;;;;26.11;56.69;99505.97;310709;31;3309;-76
2022/08/30 00:37:49;;;;;;;467.90;422.73;;;;;;;26.10;56.78;99498.94;308016;31;2986;-75
2022/08/30 00:38:00;;;;;;;470.17;424.95;;;;;;;26.09;56.85;99499.94;306300;32;1228;-75
2022/08/30 00:38:11;;;;;;;473.27;427.97;;;;;;;26.08;56.75;99503.63;309016;31;2298;-75
2022/08/30 00:38:23;;;;;;;466.80;421.67;;;;;;;26.06;57.26;99500.25;305848;32;2337;-75
2022/08/30 00:38:33;;;;;;;466.95;421.88;;;;;;;26.04;57.58;99504.97;305393;32;3036;-75
2022/08/30 00:38:43;;;;;;;469.63;424.50;;;;;;;26.04;57.36;99503.13;304317;32;801;-75
2022/08/30 00:38:54;;;;;;;477.23;431.67;;;;;;;26.04;56.75;99500.44;304621;32;4081;-77
2022/08/30 00:39:05;;;;;;;484.67;438.83;;;;;;;26.03;56.93;99497.91;303307;32;4175;-75
2022/08/30 00:39:15;;;;;;;483.97;437.97;;;;;;;26.04;57.23;99500.44;300280;32;3593;-75
2022/08/30 00:39:26;;;;;;;474.73;429.00;;;;;;;26.05;57.20;99501.28;305137;32;4143;-75
2022/08/30 00:39:36;;;;;;;473.13;427.20;;;;;;;26.04;57.25;99500.44;305065;32;4502;-76
2022/08/30 00:39:47;;;;;;;471.58;425.75;;;;;;;26.05;56.98;99499.44;301130;32;4278;-76
2022/08/30 00:39:57;;;;;;;480.40;434.53;;;;;;;26.04;57.10;99503.13;301827;32;1324;-76
2022/08/30 00:40:08;;;;;;;473.23;427.83;;;;;;;26.06;57.22;99503.78;300706;32;4274;-76
2022/08/30 00:40:19;;;;;;;477.60;431.92;;;;;;;26.07;56.90;99510.84;298527;32;3232;-76
2022/08/30 00:40:29;;;;;;;476.30;430.88;;;;;;;26.07;57.05;99501.94;293044;33;1244;-76
2022/08/30 00:40:42;;;;;;;472.83;427.43;;;;;;;26.07;56.85;99505.47;293166;33;3071;-76
2022/08/30 00:40:53;;;;;;;461.25;416.13;;;;;;;26.10;56.80;99504.31;289927;33;5114;-77
2022/08/30 00:41:03;;;;;;;457.63;412.50;;;;;;;26.10;56.87;99499.78;290867;33;6507;-77
2022/08/30 00:41:14;;;;;;;470.93;425.67;;;;;;;26.08;56.67;99501.78;294008;33;1075;-77
2022/08/30 00:41:24;;;;;;;474.83;429.38;;;;;;;26.07;56.57;99500.09;293021;33;6743;-77
2022/08/30 00:41:36;;;;;;;478.23;432.43;;;;;;;26.08;56.74;99506.31;293418;33;5910;-77
2022/08/30 00:41:47;;;;;;;473.02;427.20;;;;;;;26.07;56.82;99499.25;293660;33;2282;-77
2022/08/30 00:41:57;;;;;;;466.10;420.30;;;;;;;26.07;56.75;99505.47;286415;34;1575;-77
2022/08/30 00:42:08;;;;;;;458.50;412.90;;;;;;;26.06;57.03;99501.09;287094;34;5688;-77
2022/08/30 00:42:19;;;;;;;455.70;410.27;;;;;;;26.06;56.67;99506.47;285847;34;6208;-76
2022/08/30 00:42:30;;;;;;;457.88;412.60;;;;;;;26.05;56.84;99504.78;282770;35;1331;-76
2022/08/30 00:42:41;;;;;;;463.65;418.20;;;;;;;26.06;57.03;99500.25;285092;34;4511;-76
2022/08/30 00:42:51;;;;;;;464.25;418.77;;;;;;;26.05;56.69;99501.28;285862;34;4764;-76
2022/08/30 00:43:03;;;;;;;458.95;413.75;;;;;;;26.05;56.79;99502.09;285130;34;7048;-76
2022/08/30 00:43:21;;;;;;;466.30;420.83;;;;;;;26.06;56.70;99503.78;282657;34;1708;-76
2022/08/30 00:43:34;;;;;;;465.33;419.70;;;;;;;26.06;56.54;99501.09;276255;35;8755;-76
2022/08/30 00:43:44;;;;;;;463.42;417.92;;;;;;;26.08;56.67;99503.63;279988;35;1858;-76
2022/08/30 00:43:55;;;;;;;469.33;423.67;;;;;;;26.06;56.88;99503.78;274464;35;9439;-77
2022/08/30 00:44:07;;;;;;;472.92;427.10;;;;;;;26.06;56.96;99503.78;270933;35;9307;-77
2022/08/30 00:45:54;;;;;;;393.63;341.20;;;;;;;26.13;56.56;99499.44;2497091;27;20488;-76
2022/08/30 00:46:07;;;;;;;412.30;368.13;;;;;;;26.13;56.67;99495.94;351569;28;1620;-76
2022/08/30 00:46:17;;;;;;;413.00;368.80;;;;;;;26.13;56.39;99507.50;349016;28;923;-76
2022/08/30 00:46:27;;;;;;;416.50;372.13;;;;;;;26.13;56.63;99498.59;347595;28;1227;-76
2022/08/30 00:46:38;;;;;;;422.63;378.45;;;;;;;26.14;56.77;99494.91;349226;28;1213;-76
2022/08/30 00:46:48;;;;;;;424.63;380.40;;;;;;;26.11;56.45;99495.25;349012;28;944;-76
2022/08/30 00:46:59;;;;;;;422.67;378.40;;;;;;;26.10;56.88;99499.78;349041;28;742;-76
2022/08/30 00:47:09;;;;;;;422.80;378.33;;;;;;;26.10;56.75;99497.09;347530;28;829;-76
2022/08/30 00:47:20;;;;;;;422.00;377.30;;;;;;;26.10;56.45;99494.41;347352;28;2085;-76
2022/08/30 00:47:30;;;;;;;428.25;383.45;;;;;;;26.11;56.90;99500.63;348741;28;1455;-76
2022/08/30 00:47:41;;;;;;;430.57;385.67;;;;;;;26.11;56.53;99495.25;346087;28;1371;-76
2022/08/30 00:47:51;;;;;;;434.15;389.25;;;;;;;26.11;56.63;99498.78;347214;28;839;-76
2022/08/30 00:48:02;;;;;;;434.33;389.50;;;;;;;26.10;56.61;99489.03;348838;28;1323;-76
2022/08/30 00:48:12;;;;;;;428.23;383.58;;;;;;;26.10;56.78;99494.41;346194;28;1192;-76
2022/08/30 00:48:22;;;;;;;425.20;380.63;;;;;;;26.10;56.53;99493.56;344877;28;4825;-77
2022/08/30 00:48:33;;;;;;;422.55;378.08;;;;;;;26.10;56.33;99491.72;348090;28;3160;-77
2022/08/30 00:48:45;;;;;;;423.13;378.77;;;;;;;26.12;56.54;99495.09;351578;28;1534;-77
2022/08/30 00:48:55;;;;;;;421.35;377.13;;;;;;;26.12;56.63;99492.41;350486;28;1762;-77
2022/08/30 00:49:06;;;;;;;421.77;377.43;;;;;;;26.12;56.83;99497.78;348410;28;1696;-77
2022/08/30 00:49:16;;;;;;;422.67;378.10;;;;;;;26.13;56.89;99494.09;348880;28;1826;-76
2022/08/30 00:49:27;;;;;;;423.27;378.52;;;;;;;26.13;56.51;99498.59;348146;28;1834;-76
2022/08/30 00:49:38;;;;;;;419.42;374.75;;;;;;;26.13;56.44;99494.09;348801;28;921;-76
2022/08/30 00:49:50;;;;;;;421.38;376.52;;;;;;;26.11;56.82;99501.47;347308;28;1211;-76
2022/08/30 00:50:01;;;;;;;420.65;375.77;;;;;;;26.09;56.80;99498.09;347308;28;1471;-76
2022/08/30 00:50:12;;;;;;;426.87;381.90;;;;;;;26.09;56.62;99499.94;347754;28;1636;-77
2022/08/30 00:50:25;;;;;;;429.20;384.15;;;;;;;26.08;56.73;99501.78;350307;28;1057;-77
2022/08/30 00:50:41;;;;;;;426.45;382.00;;;;;;;26.09;57.02;99498.09;343734;28;1304;-77
2022/08/30 00:50:56;;;;;;;422.58;378.38;;;;;;;26.11;56.56;99496.09;345924;28;1114;-77
2022/08/30 00:51:07;;;;;;;425.75;381.38;;;;;;;26.13;56.50;99499.44;347495;28;1069;-77
2022/08/30 00:51:17;;;;;;;424.15;379.83;;;;;;;26.10;56.41;99502.47;347315;28;1283;-76
2022/08/30 00:51:28;;;;;;;419.02;374.83;;;;;;;26.08;56.76;99499.09;344835;28;838;-77
2022/08/30 00:51:39;;;;;;;414.63;370.40;;;;;;;26.06;56.69;99498.44;340799;29;1362;-77
2022/08/30 00:51:49;;;;;;;416.63;372.15;;;;;;;26.05;56.63;99501.28;346330;28;1978;-76
2022/08/30 00:52:00;;;;;;;426.07;381.17;;;;;;;26.05;56.50;99499.44;341732;28;1463;-76
2022/08/30 00:52:14;;;;;;;431.00;386.05;;;;;;;26.06;56.32;99498.44;342246;28;837;-76
2022/08/30 00:52:24;;;;;;;429.17;384.50;;;;;;;26.06;56.63;99503.78;339535;29;940;-76
2022/08/30 00:52:35;;;;;;;426.83;382.10;;;;;;;26.05;56.36;99494.06;341062;28;1168;-76
2022/08/30 00:52:46;;;;;;;432.97;388.00;;;;;;;26.03;56.82;99498.75;341993;28;2030;-76
2022/08/30 00:52:58;;;;;;;436.40;391.33;;;;;;;26.04;56.80;99500.44;340272;29;2578;-76
2022/08/30 00:53:16;;;;;;;435.00;390.02;;;;;;;26.03;57.10;99506.78;338204;29;832;-76
2022/08/30 00:53:29;;;;;;;429.20;384.52;;;;;;;26.04;56.94;99505.78;335562;29;1180;-76
2022/08/30 00:53:43;;;;;;;444.65;399.67;;;;;;;26.05;56.75;99498.59;335603;29;1456;-76
2022/08/30 00:53:53;;;;;;;461.02;415.60;;;;;;;26.07;56.90;99497.41;333062;29;917;-76
2022/08/30 00:54:04;;;;;;;468.35;422.85;;;;;;;26.07;57.10;99505.47;331013;29;1992;-76
2022/08/30 00:54:15;;;;;;;472.20;426.60;;;;;;;26.04;56.96;99500.44;331843;29;1329;-76
2022/08/30 00:54:26;;;;;;;472.38;426.75;;;;;;;26.05;57.00;99504.78;334425;29;1453;-76
2022/08/30 00:54:37;;;;;;;473.38;427.60;;;;;;;26.05;56.74;99502.09;331102;29;1766;-76
2022/08/30 00:54:48;;;;;;;461.60;415.90;;;;;;;26.05;56.83;99501.28;333121;29;2019;-76
2022/08/30 00:55:00;;;;;;;456.13;410.50;;;;;;;26.06;56.97;99501.09;333016;29;1050;-76
2022/08/30 00:55:13;;;;;;;455.63;410.17;;;;;;;26.06;56.79;99498.44;336803;29;1583;-76